Time;durP1;ratioP1;P1;durP2;ratioP2;P2;SDS_P1;SDS_P2;PMS_P1;PMS_P2;Temp;Humidity;BMP_temperature;BMP_pressure;BME280_temperature;BME280_humidity;BME280_pressure;Samples;Min_cycle;Max_cycle;Signal;HPM_P1;HPM_P2
2023/10/18 00:02:00;;;;;;;16.48;14.82;;;;;;;5.86;82.16;97669.63;5102644;28;20218;-76
2023/10/18 00:04:28;;;;;;;15.38;13.98;;;;;;;5.89;82.08;97668.47;5104007;28;20254;-77
2023/10/18 00:06:56;;;;;;;15.63;14.23;;;;;;;5.79;82.38;97667.88;5101173;28;20196;-76
2023/10/18 00:12:08;;;;;;;15.80;14.30;;;;;;;5.69;82.65;97658.22;5102883;28;20202;-76
2023/10/18 00:14:35;;;;;;;14.57;13.15;;;;;;;5.72;82.52;97657.03;5113941;28;20211;-76
2023/10/18 00:17:03;;;;;;;14.75;13.45;;;;;;;5.63;82.73;97653.56;5105010;28;20612;-76
2023/10/18 00:19:29;;;;;;;15.82;14.23;;;;;;;5.67;82.72;97654.03;5093114;28;20199;-76
2023/10/18 00:21:57;;;;;;;14.57;13.13;;;;;;;5.74;82.29;97657.69;5099306;28;20247;-76
2023/10/18 00:24:24;;;;;;;15.60;14.10;;;;;;;5.81;82.33;97658.63;5102389;28;20582;-77
2023/10/18 00:26:51;;;;;;;14.95;13.55;;;;;;;5.82;82.12;97657.63;5107598;28;20774;-76
2023/10/18 00:29:19;;;;;;;16.17;14.48;;;;;;;5.73;82.37;97647.97;5108446;28;20207;-76
2023/10/18 00:31:45;;;;;;;15.98;14.30;;;;;;;5.74;82.34;97658.53;5105502;28;20195;-77
2023/10/18 00:34:12;;;;;;;15.48;14.05;;;;;;;5.78;82.44;97650.09;5106526;28;20289;-77
2023/10/18 00:36:40;;;;;;;15.50;13.85;;;;;;;5.83;81.85;97653.09;5110072;28;20283;-77
2023/10/18 00:39:20;;;;;;;15.52;14.07;;;;;;;5.88;81.58;97634.53;5100763;28;20200;-76
2023/10/18 00:41:49;;;;;;;14.77;13.35;;;;;;;5.66;82.15;97642.47;5105673;28;20289;-77
2023/10/18 00:44:16;;;;;;;15.82;14.15;;;;;;;5.73;81.95;97637.22;5101107;28;20346;-75
2023/10/18 00:46:43;;;;;;;15.05;13.65;;;;;;;5.66;81.95;97636.28;5106552;28;20206;-76
2023/10/18 00:49:14;;;;;;;15.65;14.20;;;;;;;5.65;82.20;97629.22;5109961;28;20213;-76
2023/10/18 00:51:43;;;;;;;15.57;14.20;;;;;;;5.40;82.99;97632.13;5110782;28;20248;-76
2023/10/18 00:54:12;;;;;;;15.68;13.85;;;;;;;5.36;83.90;97627.28;5109992;28;20283;-76
2023/10/18 00:56:40;;;;;;;14.52;13.27;;;;;;;5.51;83.24;97622.00;5111806;28;20290;-76
2023/10/18 00:59:18;;;;;;;16.83;15.30;;;;;;;5.40;82.63;97617.88;5112902;28;20198;-76
2023/10/18 01:01:46;;;;;;;16.63;14.95;;;;;;;5.37;83.29;97610.19;5103007;28;20282;-76
2023/10/18 01:04:13;;;;;;;17.00;14.95;;;;;;;5.35;83.60;97607.69;5105085;28;20223;-76
2023/10/18 01:06:42;;;;;;;16.50;14.98;;;;;;;5.36;83.49;97603.97;5108777;28;20206;-76
2023/10/18 01:09:15;;;;;;;16.83;15.20;;;;;;;5.29;84.08;97600.34;5109728;28;20210;-76
2023/10/18 01:11:46;;;;;;;17.90;16.00;;;;;;;5.16;84.71;97600.13;5108955;28;20213;-77
2023/10/18 01:14:17;;;;;;;17.83;16.08;;;;;;;5.02;85.65;97598.19;5108563;28;20768;-76
2023/10/18 01:16:45;;;;;;;19.83;17.83;;;;;;;5.08;85.47;97594.81;5106677;28;20199;-76
2023/10/18 01:19:14;;;;;;;17.92;16.23;;;;;;;5.07;85.75;97585.09;5108843;28;20195;-76
2023/10/18 01:21:45;;;;;;;19.27;17.40;;;;;;;5.10;85.66;97576.69;5111220;28;20230;-76
2023/10/18 01:24:15;;;;;;;19.52;17.55;;;;;;;5.17;85.38;97576.81;5104514;28;20247;-76
2023/10/18 01:26:44;;;;;;;19.98;18.08;;;;;;;5.18;85.29;97576.66;5109413;28;20238;-76
2023/10/18 01:29:11;;;;;;;17.90;16.17;;;;;;;5.10;85.48;97576.69;5105821;28;20568;-77
2023/10/18 01:31:43;;;;;;;18.60;16.80;;;;;;;5.29;85.01;97570.84;5106541;28;20232;-77
2023/10/18 01:34:11;;;;;;;18.20;16.40;;;;;;;5.24;85.16;97570.53;5109774;28;20241;-77
2023/10/18 01:36:39;;;;;;;18.55;16.65;;;;;;;5.30;84.63;97567.13;5101819;28;20198;-77
2023/10/18 01:39:08;;;;;;;17.75;16.05;;;;;;;5.30;84.36;97571.66;5108718;28;20248;-77
2023/10/18 01:41:37;;;;;;;21.05;19.05;;;;;;;5.20;85.44;97571.09;5101749;28;20195;-76
2023/10/18 01:44:06;;;;;;;20.30;18.30;;;;;;;5.10;85.37;97565.97;5110542;28;20269;-78
2023/10/18 01:46:34;;;;;;;20.00;18.00;;;;;;;5.14;85.65;97561.91;5113562;28;21780;-76
2023/10/18 01:49:01;;;;;;;20.77;18.77;;;;;;;5.16;85.48;97565.25;5104383;28;20341;-76
2023/10/18 01:51:28;;;;;;;20.60;18.55;;;;;;;5.18;85.52;97557.03;5103701;28;20755;-76
2023/10/18 01:53:55;;;;;;;21.95;19.75;;;;;;;5.19;85.51;97556.84;5102818;28;20266;-76
2023/10/18 01:56:23;;;;;;;20.25;18.10;;;;;;;5.09;86.06;97552.75;5107424;28;20293;-76
2023/10/18 01:58:50;;;;;;;19.25;17.23;;;;;;;5.13;85.88;97546.84;5099580;28;20764;-77
2023/10/18 02:01:19;;;;;;;22.33;20.08;;;;;;;5.06;86.20;97546.72;5108830;28;20310;-76
2023/10/18 02:03:49;;;;;;;22.90;20.45;;;;;;;5.11;86.27;97548.88;5091439;28;20652;-76
2023/10/18 02:06:17;;;;;;;22.10;20.00;;;;;;;5.06;86.32;97544.03;5109783;28;20191;-77
2023/10/18 02:08:44;;;;;;;21.92;19.73;;;;;;;5.07;86.37;97544.88;5100789;28;20207;-76
2023/10/18 02:11:11;;;;;;;22.52;20.23;;;;;;;5.07;86.38;97544.88;5110431;28;20222;-77
2023/10/18 02:13:38;;;;;;;20.85;18.77;;;;;;;5.06;86.25;97537.84;5107571;28;20230;-76
2023/10/18 02:16:06;;;;;;;20.58;18.58;;;;;;;5.18;86.08;97547.13;5109019;28;20556;-77
2023/10/18 02:18:35;;;;;;;21.98;19.85;;;;;;;5.16;86.11;97538.44;5099931;28;20761;-76
2023/10/18 02:21:02;;;;;;;20.73;18.83;;;;;;;5.32;85.02;97538.28;5108408;28;20260;-76
2023/10/18 02:23:34;;;;;;;22.48;20.35;;;;;;;5.32;85.17;97537.44;5099902;28;20199;-76
2023/10/18 02:26:02;;;;;;;21.05;18.85;;;;;;;5.35;84.93;97527.19;5110911;28;20230;-76
2023/10/18 02:28:28;;;;;;;20.95;18.80;;;;;;;5.15;85.67;97528.72;5109760;28;20221;-76
2023/10/18 02:30:57;;;;;;;19.42;17.58;;;;;;;5.27;85.58;97537.97;5108861;28;20211;-76
2023/10/18 02:33:35;;;;;;;23.65;19.70;;;;;;;5.30;85.64;97548.34;5100377;28;20272;-77
2023/10/18 02:36:06;;;;;;;20.83;18.83;;;;;;;5.43;84.93;97545.06;5103563;28;20219;-77
2023/10/18 02:38:33;;;;;;;20.58;18.65;;;;;;;5.57;nan;97546.94;5108827;28;20627;-76
2023/10/18 02:41:04;;;;;;;18.67;16.83;;;;;;;5.45;84.25;97558.31;5097728;28;20194;-76
2023/10/18 02:43:31;;;;;;;18.80;17.00;;;;;;;5.57;83.40;97548.78;5102200;28;20195;-77
2023/10/18 02:45:58;;;;;;;19.50;17.73;;;;;;;5.57;83.17;97535.34;5094654;28;20234;-76
2023/10/18 02:48:25;;;;;;;17.75;16.05;;;;;;;5.56;83.43;97544.41;5105938;28;20186;-76
2023/10/18 02:50:54;;;;;;;18.70;16.95;;;;;;;5.45;83.70;97534.16;5100557;28;20191;-76
2023/10/18 02:53:23;;;;;;;18.70;17.00;;;;;;;5.43;83.78;97533.50;5104300;28;20294;-75
2023/10/18 02:55:54;;;;;;;20.85;18.95;;;;;;;5.31;84.67;97533.94;5109566;28;20231;-76
2023/10/18 02:58:21;;;;;;;19.98;18.15;;;;;;;5.37;84.31;97529.69;5101176;28;20194;-77
2023/10/18 03:00:49;;;;;;;20.17;18.15;;;;;;;5.42;84.21;97519.25;5105827;28;20272;-77
2023/10/18 03:03:21;;;;;;;20.65;18.55;;;;;;;5.56;84.24;97518.41;5108949;28;20199;-76
2023/10/18 03:05:48;;;;;;;20.60;18.40;;;;;;;5.70;83.57;97516.78;5107851;28;20302;-76
2023/10/18 03:08:20;;;;;;;18.60;16.88;;;;;;;5.68;83.64;97516.13;5102388;28;20603;-76
2023/10/18 03:10:51;;;;;;;19.52;17.73;;;;;;;5.37;84.42;97518.97;5107799;28;20216;-76
2023/10/18 03:13:23;;;;;;;20.40;18.40;;;;;;;5.56;84.12;97528.31;5105752;28;20658;-76
2023/10/18 03:16:04;;;;;;;19.90;18.02;;;;;;;5.46;84.32;97522.41;5112282;28;20210;-75
2023/10/18 03:18:34;;;;;;;19.75;17.85;;;;;;;5.62;83.49;97523.06;5109877;28;20195;-76
2023/10/18 03:21:05;;;;;;;19.60;17.60;;;;;;;5.64;83.21;97512.97;5096735;28;20246;-76
2023/10/18 03:23:32;;;;;;;21.63;18.60;;;;;;;5.69;82.64;97517.78;5100134;28;20259;-76
2023/10/18 03:26:07;;;;;;;18.88;17.08;;;;;;;5.66;82.67;97510.09;5102608;28;20297;-76
2023/10/18 03:28:35;;;;;;;19.25;17.45;;;;;;;5.52;83.26;97502.88;5096901;28;20204;-76
2023/10/18 03:31:20;;;;;;;20.33;18.23;;;;;;;5.67;82.91;97501.03;5102141;28;20202;-76
2023/10/18 03:33:50;;;;;;;19.65;17.70;;;;;;;5.34;84.13;97493.31;5099312;28;20221;-76
2023/10/18 03:36:20;;;;;;;20.95;18.85;;;;;;;5.25;84.44;97494.41;5101619;28;20195;-76
2023/10/18 03:38:53;;;;;;;19.13;17.25;;;;;;;5.44;83.88;97493.06;5107272;28;20343;-76
2023/10/18 03:41:25;;;;;;;22.00;19.90;;;;;;;5.39;84.19;97490.94;5103139;28;20203;-77
2023/10/18 03:44:03;;;;;;;20.40;18.38;;;;;;;5.31;83.97;97491.00;5092671;28;20231;-83
2023/10/18 03:46:38;;;;;;;20.13;17.92;;;;;;;5.30;84.05;97491.19;5098639;28;20903;-79
2023/10/18 03:49:08;;;;;;;20.30;18.30;;;;;;;5.29;84.29;97487.66;5097430;28;20202;-75
2023/10/18 03:51:36;;;;;;;21.17;18.85;;;;;;;5.30;83.38;97499.22;5101908;28;20202;-75
2023/10/18 03:54:04;;;;;;;19.80;17.77;;;;;;;5.19;83.75;97497.00;5098469;28;20227;-75
2023/10/18 03:56:36;;;;;;;20.05;18.15;;;;;;;5.04;84.46;97497.78;5106147;28;20222;-76
2023/10/18 03:59:18;;;;;;;17.73;16.13;;;;;;;4.87;85.27;97495.44;5103877;28;20574;-76
2023/10/18 04:02:02;;;;;;;18.38;16.63;;;;;;;4.88;84.92;97486.34;5100220;28;20194;-76
2023/10/18 04:04:34;;;;;;;18.88;16.80;;;;;;;5.07;83.90;97475.16;5100321;28;20223;-76
2023/10/18 04:07:12;;;;;;;21.60;18.55;;;;;;;4.95;83.89;97466.69;5100347;28;20206;-75
2023/10/18 04:09:40;;;;;;;22.13;19.80;;;;;;;4.70;84.91;97467.91;5103412;28;20199;-75
2023/10/18 04:12:08;;;;;;;19.98;18.05;;;;;;;4.64;85.93;97488.22;5095194;28;20192;-76
2023/10/18 04:14:37;;;;;;;20.25;18.15;;;;;;;4.63;86.02;97478.50;5097284;28;20595;-76
2023/10/18 04:17:09;;;;;;;25.48;20.33;;;;;;;4.56;86.20;97469.50;5101207;28;20262;-75
2023/10/18 04:19:36;;;;;;;22.58;20.27;;;;;;;4.71;85.52;97464.22;5104681;28;20230;-77
2023/10/18 04:22:08;;;;;;;21.50;19.15;;;;;;;4.72;85.25;97458.69;5096147;28;20203;-76
2023/10/18 04:24:35;;;;;;;22.83;19.77;;;;;;;4.68;85.95;97460.06;5103960;28;20221;-76
2023/10/18 04:27:04;;;;;;;23.63;21.25;;;;;;;4.76;85.77;97452.97;5096843;28;20199;-75
2023/10/18 04:29:34;;;;;;;22.63;20.23;;;;;;;4.74;86.01;97447.78;5102751;28;20203;-77
2023/10/18 04:32:03;;;;;;;22.85;20.45;;;;;;;4.66;85.90;97451.34;5104128;28;20210;-77
2023/10/18 04:34:33;;;;;;;23.27;20.50;;;;;;;4.70;85.98;97444.63;5098063;28;20237;-76
2023/10/18 04:37:00;;;;;;;24.25;21.25;;;;;;;4.67;86.46;97439.63;5092929;28;20516;-75
2023/10/18 04:39:27;;;;;;;23.88;21.38;;;;;;;4.71;86.20;97427.53;5097327;28;20669;-80
2023/10/18 04:41:55;;;;;;;16.45;14.75;;;;;;;5.48;87.11;97423.75;5101038;28;20962;-81
2023/10/18 04:44:23;;;;;;;17.60;15.95;;;;;;;6.27;82.27;97403.25;5102493;28;20225;-80
2023/10/18 04:46:52;;;;;;;22.02;19.75;;;;;;;5.73;82.60;97411.72;5111842;28;20204;-81
2023/10/18 04:49:36;;;;;;;21.20;18.92;;;;;;;5.41;82.71;97418.31;5095212;28;20654;-79
2023/10/18 04:52:05;;;;;;;21.70;19.40;;;;;;;5.55;83.31;97419.28;5088325;28;20200;-79
2023/10/18 04:54:41;;;;;;;21.70;19.40;;;;;;;5.31;83.53;97418.56;5093397;28;20328;-79
2023/10/18 04:57:10;;;;;;;21.25;19.15;;;;;;;5.28;83.84;97424.28;5098293;28;20216;-79
2023/10/18 04:59:46;;;;;;;21.00;18.90;;;;;;;5.32;83.05;97422.91;5095841;28;20199;-79
2023/10/18 05:02:26;;;;;;;21.23;19.15;;;;;;;5.10;84.08;97415.78;5091574;28;20290;-79
2023/10/18 05:04:52;;;;;;;21.60;19.48;;;;;;;5.00;83.94;97404.47;5102688;28;21000;-81
2023/10/18 05:07:19;;;;;;;21.63;19.33;;;;;;;4.94;84.34;97407.88;5098328;28;20675;-79
2023/10/18 05:09:55;;;;;;;20.85;18.75;;;;;;;4.67;85.35;97393.22;5071801;28;23442;-74
2023/10/18 05:12:28;;;;;;;20.05;18.00;;;;;;;4.69;85.35;97408.13;5093609;28;20315;-78
2023/10/18 05:15:09;;;;;;;20.65;18.52;;;;;;;4.70;85.19;97412.47;5102756;28;20226;-78
2023/10/18 05:17:42;;;;;;;20.85;18.85;;;;;;;4.80;84.60;97404.19;5098691;28;20187;-78
2023/10/18 05:20:21;;;;;;;20.85;18.65;;;;;;;4.57;85.42;97404.19;5101801;28;20198;-78
2023/10/18 05:22:50;;;;;;;24.85;21.83;;;;;;;4.54;85.46;97407.25;5094743;28;20194;-78
2023/10/18 05:25:29;;;;;;;22.48;20.00;;;;;;;4.55;85.85;97400.84;5096301;28;20223;-78
2023/10/18 05:28:16;;;;;;;22.55;20.33;;;;;;;4.47;86.11;97398.25;5084182;28;20198;-77
2023/10/18 05:33:48;;;;;;;24.75;20.88;;;;;;;4.36;86.92;97396.00;5091929;28;20233;-78
2023/10/18 05:39:18;;;;;;;23.52;21.13;;;;;;;4.53;86.42;97394.88;5081495;28;20190;-79
2023/10/18 05:41:45;;;;;;;22.50;20.20;;;;;;;4.65;85.96;97396.09;5099279;28;20400;-79
2023/10/18 05:44:13;;;;;;;23.15;20.65;;;;;;;4.54;86.38;97404.56;5096501;28;20321;-79
2023/10/18 05:46:41;;;;;;;23.77;21.48;;;;;;;4.47;86.37;97400.94;5103449;28;20708;-78
2023/10/18 05:49:15;;;;;;;22.38;20.00;;;;;;;4.44;87.28;97397.78;5102458;28;20202;-78
2023/10/18 05:51:52;;;;;;;24.63;22.08;;;;;;;4.34;87.27;97398.03;5099154;28;20195;-78
2023/10/18 05:54:21;;;;;;;21.50;19.20;;;;;;;4.54;86.79;97403.75;5104022;28;20728;-78
2023/10/18 05:56:50;;;;;;;22.67;20.35;;;;;;;4.71;86.14;97402.59;5105520;28;20204;-78
2023/10/18 05:59:27;;;;;;;22.90;20.42;;;;;;;4.70;86.26;97406.28;5103996;28;20210;-79
2023/10/18 06:01:57;;;;;;;22.88;19.77;;;;;;;4.54;86.64;97401.91;5100378;28;20691;-79
2023/10/18 06:04:26;;;;;;;25.42;20.75;;;;;;;4.71;86.20;97400.72;5092735;28;20216;-78
2023/10/18 06:06:58;;;;;;;21.25;18.83;;;;;;;4.77;85.43;97388.47;5097759;28;20647;-78
2023/10/18 06:09:27;;;;;;;21.88;19.52;;;;;;;4.87;85.55;97393.56;5104598;28;20196;-78
2023/10/18 06:11:55;;;;;;;22.17;19.83;;;;;;;5.02;84.66;97391.72;5105873;28;20203;-77
2023/10/18 06:14:25;;;;;;;24.17;20.50;;;;;;;4.94;85.12;97386.44;5099869;28;20227;-78
2023/10/18 06:17:05;;;;;;;25.13;19.65;;;;;;;5.00;84.78;97389.22;5111083;28;20194;-77
2023/10/18 06:19:36;;;;;;;22.08;19.75;;;;;;;4.95;84.86;97385.41;5100244;28;20647;-78
2023/10/18 06:22:15;;;;;;;26.45;20.42;;;;;;;5.01;84.74;97390.88;5093653;28;20199;-78
2023/10/18 06:24:45;;;;;;;22.80;20.50;;;;;;;5.07;84.95;97383.97;5095535;28;20225;-77
2023/10/18 06:27:15;;;;;;;20.92;18.92;;;;;;;4.95;84.80;97380.91;5078137;28;20287;-78
2023/10/18 06:29:44;;;;;;;19.10;17.02;;;;;;;5.15;84.14;97373.16;5101472;28;20538;-79
2023/10/18 06:32:13;;;;;;;20.90;18.85;;;;;;;5.37;83.58;97374.06;5096123;28;20208;-78
2023/10/18 06:34:43;;;;;;;22.50;20.10;;;;;;;5.37;83.79;97364.19;5088978;28;20583;-77
2023/10/18 06:37:21;;;;;;;19.73;17.67;;;;;;;5.45;83.08;97365.94;5089054;28;20195;-78
2023/10/18 06:39:51;;;;;;;20.55;18.45;;;;;;;5.73;82.57;97358.84;5095358;28;20203;-78
2023/10/18 06:42:18;;;;;;;19.45;17.55;;;;;;;5.61;82.75;97359.50;5096140;28;20218;-78
2023/10/18 06:44:45;;;;;;;20.30;18.38;;;;;;;5.80;82.32;97364.31;5098323;28;20315;-78
2023/10/18 06:47:14;;;;;;;21.92;19.38;;;;;;;5.81;82.12;97365.13;5097913;28;20203;-78
2023/10/18 06:49:47;;;;;;;21.02;18.67;;;;;;;5.81;81.23;97359.75;5090719;28;20211;-78
2023/10/18 06:52:17;;;;;;;18.92;16.98;;;;;;;6.15;80.55;97351.09;5101874;28;20261;-78
2023/10/18 06:54:45;;;;;;;17.13;15.35;;;;;;;6.27;79.27;97365.66;5088008;28;20249;-78
2023/10/18 06:57:21;;;;;;;21.83;18.45;;;;;;;6.36;79.67;97351.91;5092943;28;20291;-77
2023/10/18 06:59:50;;;;;;;18.08;16.27;;;;;;;6.51;78.88;97351.81;5089593;28;20209;-78
2023/10/18 07:02:17;;;;;;;18.73;16.83;;;;;;;6.69;77.89;97354.88;5102191;28;20658;-78
2023/10/18 07:04:50;;;;;;;20.13;16.83;;;;;;;6.63;77.48;97349.44;5086629;28;20215;-78
2023/10/18 07:07:20;;;;;;;18.48;16.58;;;;;;;6.81;76.84;97349.81;5094969;28;20203;-78
2023/10/18 07:09:52;;;;;;;17.13;15.43;;;;;;;6.58;76.92;97357.25;5099242;28;20191;-78
2023/10/18 07:12:19;;;;;;;18.58;16.77;;;;;;;6.67;77.30;97351.53;5099097;28;20678;-79
2023/10/18 07:14:46;;;;;;;19.58;17.75;;;;;;;6.80;76.89;97356.22;5091829;28;20332;-78
2023/10/18 07:17:14;;;;;;;18.92;17.08;;;;;;;6.83;76.56;97349.59;5091428;28;20743;-82
2023/10/18 07:19:48;;;;;;;18.35;16.50;;;;;;;6.85;76.26;97353.75;5101474;28;20191;-82
2023/10/18 07:22:19;;;;;;;17.73;16.10;;;;;;;6.49;77.15;97316.25;5097442;28;20190;-82
2023/10/18 07:24:53;;;;;;;17.70;16.00;;;;;;;6.63;76.82;97338.69;5094592;28;20219;-81
2023/10/18 07:27:20;;;;;;;18.20;16.40;;;;;;;6.36;77.45;97332.25;5091265;28;20201;-78
2023/10/18 07:29:49;;;;;;;19.52;17.73;;;;;;;6.28;78.00;97316.25;5083538;28;20585;-78
2023/10/18 07:32:20;;;;;;;17.88;16.08;;;;;;;6.30;78.51;97316.91;5086161;28;21199;-78
2023/10/18 07:34:48;;;;;;;19.73;17.85;;;;;;;6.15;78.76;97313.47;5097766;28;20259;-78
2023/10/18 07:37:19;;;;;;;20.45;18.17;;;;;;;6.34;79.00;97305.56;5093882;28;20214;-78
2023/10/18 07:39:56;;;;;;;19.02;17.25;;;;;;;6.36;78.94;97300.00;5093551;28;20191;-78
2023/10/18 07:42:26;;;;;;;17.70;15.68;;;;;;;6.20;79.21;97302.94;5093856;28;20195;-78
2023/10/18 07:44:55;;;;;;;18.67;17.08;;;;;;;6.40;79.03;97291.38;5096117;28;20237;-78
2023/10/18 07:47:25;;;;;;;18.30;16.40;;;;;;;6.54;78.89;97303.03;5097855;28;20211;-78
2023/10/18 07:49:55;;;;;;;18.65;16.83;;;;;;;6.60;78.02;97294.19;5101786;28;20195;-79
2023/10/18 07:52:22;;;;;;;19.35;17.40;;;;;;;6.64;77.26;97290.09;5095586;28;20230;-78
2023/10/18 07:54:50;;;;;;;17.90;16.20;;;;;;;6.67;77.74;97286.19;5094458;28;20226;-78
2023/10/18 07:57:17;;;;;;;17.33;15.55;;;;;;;6.84;77.17;97286.69;5089189;28;20197;-79
2023/10/18 07:59:47;;;;;;;18.45;16.75;;;;;;;6.84;76.54;97292.06;5085814;28;20659;-78
2023/10/18 08:02:19;;;;;;;18.58;16.75;;;;;;;7.13;76.30;97281.09;5091453;28;20205;-70
2023/10/18 08:04:47;;;;;;;17.52;15.82;;;;;;;7.47;75.54;97265.94;5091841;28;20302;-70
2023/10/18 08:07:19;;;;;;;18.40;16.63;;;;;;;7.66;73.87;97257.91;5096963;28;20666;-70
2023/10/18 08:09:48;;;;;;;17.15;15.75;;;;;;;8.28;73.02;97261.31;5099383;28;20199;-71
2023/10/18 08:12:30;;;;;;;15.05;13.75;;;;;;;8.75;69.81;97260.28;5097661;28;20203;-71
2023/10/18 08:14:57;;;;;;;15.02;13.73;;;;;;;9.35;67.57;97255.56;5084998;28;20237;-71
2023/10/18 08:17:30;;;;;;;15.77;14.27;;;;;;;9.83;65.32;97257.81;5096324;28;20682;-70
2023/10/18 08:19:58;;;;;;;16.20;14.80;;;;;;;9.88;64.45;97256.13;5091596;28;20215;-72
2023/10/18 08:22:26;;;;;;;16.60;15.20;;;;;;;9.76;64.57;97268.66;5096945;28;20207;-70
2023/10/18 08:24:53;;;;;;;15.43;13.52;;;;;;;9.78;65.45;97280.06;5098692;28;20356;-71
2023/10/18 08:27:21;;;;;;;16.15;14.55;;;;;;;10.20;64.75;97273.19;5089877;28;20205;-86
2023/10/18 08:29:53;;;;;;;16.05;14.60;;;;;;;10.26;63.64;97275.03;5086413;28;20206;-82
2023/10/18 08:32:29;;;;;;;15.98;14.40;;;;;;;10.03;63.12;97245.84;5094097;28;20205;-83
2023/10/18 08:35:06;;;;;;;16.20;14.70;;;;;;;10.15;63.33;97272.16;5090702;28;20218;-83
2023/10/18 08:37:36;;;;;;;16.13;14.80;;;;;;;10.60;63.02;97275.59;5086255;28;20247;-86
2023/10/18 08:40:15;;;;;;;16.10;14.57;;;;;;;10.71;62.70;97281.13;5099270;28;20612;-85
2023/10/18 08:42:49;;;;;;;16.05;14.55;;;;;;;11.19;62.06;97268.78;5094008;28;20674;-84
2023/10/18 08:45:23;;;;;;;15.55;14.15;;;;;;;11.56;60.03;97264.19;5095019;28;20321;-89
2023/10/18 08:47:56;;;;;;;14.90;13.60;;;;;;;11.58;59.77;97270.22;5098728;28;20527;-89
2023/10/18 08:50:25;;;;;;;14.50;13.25;;;;;;;11.84;58.35;97259.03;5094852;28;20249;-87
2023/10/18 08:52:52;;;;;;;15.10;13.90;;;;;;;12.54;56.23;97255.72;5098362;28;20205;-90
2023/10/18 08:55:43;;;;;;;13.98;12.88;;;;;;;12.47;57.01;97257.69;5093905;28;20226;-91
2023/10/18 08:58:17;;;;;;;14.48;13.02;;;;;;;12.71;55.99;97257.47;5090400;28;20223;-90
2023/10/18 09:01:05;;;;;;;15.10;13.68;;;;;;;12.96;54.64;97256.44;5095983;28;20679;-90
2023/10/18 09:03:32;;;;;;;14.13;12.87;;;;;;;12.82;54.97;97261.28;5093933;28;20289;-90
2023/10/18 09:06:04;;;;;;;16.13;14.43;;;;;;;12.73;54.71;97249.94;5092271;28;20453;-90
2023/10/18 09:08:35;;;;;;;14.05;12.88;;;;;;;12.05;57.57;97247.69;5091887;28;20204;-89
2023/10/18 09:11:05;;;;;;;15.02;13.63;;;;;;;11.99;58.31;97253.22;5094992;28;20219;-90
2023/10/18 09:13:41;;;;;;;13.83;12.63;;;;;;;12.08;58.69;97252.66;5096610;28;20222;-90
2023/10/18 09:16:19;;;;;;;13.93;12.63;;;;;;;13.14;55.50;97245.44;5099862;28;20584;-90
2023/10/18 09:18:48;;;;;;;13.63;12.50;;;;;;;13.62;54.01;97245.16;5104657;28;20452;-90
2023/10/18 09:21:19;;;;;;;13.83;12.67;;;;;;;14.17;52.06;97233.69;5106887;28;20878;-89
2023/10/18 09:23:49;;;;;;;13.10;12.10;;;;;;;14.82;50.49;97235.06;5101893;28;20507;-89
2023/10/18 09:26:26;;;;;;;13.00;12.00;;;;;;;15.54;47.84;97226.81;5096694;28;20539;-90
2023/10/18 09:28:59;;;;;;;13.67;12.57;;;;;;;16.64;45.89;97212.69;5095430;28;20463;-89
2023/10/18 09:31:26;;;;;;;14.17;13.07;;;;;;;17.25;43.97;97215.00;5095281;28;20982;-89
2023/10/18 09:33:56;;;;;;;14.10;13.00;;;;;;;16.16;45.47;97207.34;5091473;28;20481;-89
2023/10/18 09:36:24;;;;;;;14.93;13.63;;;;;;;15.34;47.75;97200.09;5082255;28;20554;-90
2023/10/18 09:38:53;;;;;;;13.50;12.43;;;;;;;15.68;47.24;97200.81;5095822;28;20924;-90
2023/10/18 09:41:21;;;;;;;13.37;12.20;;;;;;;14.79;49.24;97199.06;5097909;28;20449;-89
2023/10/18 09:43:48;;;;;;;14.47;12.97;;;;;;;14.99;48.74;97194.97;5100857;28;20496;-90
2023/10/18 09:46:18;;;;;;;13.97;12.77;;;;;;;14.27;50.15;97195.75;5098692;28;20900;-90
2023/10/18 09:48:46;;;;;;;12.80;11.73;;;;;;;14.05;51.51;97190.19;5100495;28;20456;-89
2023/10/18 09:51:15;;;;;;;13.27;12.20;;;;;;;14.19;51.19;97189.91;5085466;28;20489;-89
2023/10/18 09:53:44;;;;;;;12.77;11.70;;;;;;;14.69;50.03;97185.28;5088138;28;20904;-90
2023/10/18 09:56:15;;;;;;;12.53;11.47;;;;;;;14.72;49.70;97190.25;5092401;28;20481;-91
2023/10/18 09:58:43;;;;;;;13.67;12.30;;;;;;;14.52;50.48;97187.22;5098852;28;20456;-91
2023/10/18 10:01:26;;;;;;;14.33;13.03;;;;;;;14.12;52.13;97179.97;5089393;28;21170;-90
2023/10/18 10:03:57;;;;;;;14.03;12.83;;;;;;;14.33;51.68;97177.59;5081803;28;21004;-91
2023/10/18 10:06:25;;;;;;;13.07;11.87;;;;;;;15.04;50.56;97174.06;5097548;28;20456;-90
2023/10/18 10:08:55;;;;;;;13.50;12.37;;;;;;;16.16;47.45;97163.66;5088492;28;20952;-89
2023/10/18 10:11:29;;;;;;;13.33;12.20;;;;;;;15.98;46.08;97162.09;5096593;28;20468;-89
2023/10/18 10:14:00;;;;;;;11.53;10.53;;;;;;;15.97;47.71;97164.00;5089925;28;20637;-89
2023/10/18 10:16:28;;;;;;;12.70;11.60;;;;;;;16.27;45.74;97170.81;5091399;28;20476;-89
2023/10/18 10:18:59;;;;;;;13.33;12.33;;;;;;;16.01;47.54;97159.69;5078501;28;20457;-90
2023/10/18 10:21:27;;;;;;;12.47;11.27;;;;;;;15.49;48.18;97159.38;5090446;28;20461;-90
2023/10/18 10:24:06;;;;;;;11.80;10.60;;;;;;;15.92;47.44;97158.50;5096119;28;20980;-90
2023/10/18 10:26:35;;;;;;;12.53;11.53;;;;;;;15.04;49.90;97154.19;5094264;28;20460;-89
2023/10/18 10:31:50;;;;;;;13.50;12.33;;;;;;;14.70;50.93;97140.63;5095931;28;20457;-90
2023/10/18 10:34:24;;;;;;;13.27;12.27;;;;;;;15.25;50.04;97128.84;5096004;28;20570;-89
2023/10/18 10:36:52;;;;;;;13.73;12.50;;;;;;;15.17;48.84;97129.28;5097870;28;20488;-90
2023/10/18 10:39:24;;;;;;;13.53;12.33;;;;;;;14.49;51.25;97129.69;5098316;28;20472;-89
2023/10/18 10:41:51;;;;;;;12.90;11.90;;;;;;;14.29;51.58;97132.91;5093876;28;20573;-89
2023/10/18 10:44:22;;;;;;;13.50;12.30;;;;;;;14.13;52.56;97132.66;5096862;28;20507;-88
2023/10/18 10:46:51;;;;;;;12.30;11.30;;;;;;;14.10;52.77;97124.97;5091970;28;21260;-89
2023/10/18 10:49:48;;;;;;;12.30;11.20;;;;;;;14.93;51.15;97119.72;5103814;28;20563;-90
2023/10/18 10:52:18;;;;;;;12.43;11.33;;;;;;;14.85;50.94;97110.06;5111431;28;20454;-90
2023/10/18 10:54:51;;;;;;;10.67;9.77;;;;;;;15.59;49.41;97098.72;5094716;28;20483;-89
2023/10/18 10:57:19;;;;;;;11.70;10.70;;;;;;;16.63;46.69;97096.25;5095187;28;20611;-89
2023/10/18 10:59:52;;;;;;;10.30;9.50;;;;;;;17.61;44.15;97106.56;5089761;28;20453;-89
2023/10/18 11:02:24;;;;;;;10.27;9.47;;;;;;;17.90;43.05;97088.56;5094892;28;20469;-90
2023/10/18 11:04:57;;;;;;;10.40;9.60;;;;;;;17.50;43.80;97080.28;5096784;28;20980;-90
2023/10/18 11:07:25;;;;;;;10.43;9.63;;;;;;;16.77;44.90;97069.34;5085397;28;20461;-89
2023/10/18 11:09:59;;;;;;;9.37;8.67;;;;;;;15.84;46.64;97068.94;5094690;28;20480;-89
2023/10/18 11:12:27;;;;;;;9.50;8.70;;;;;;;15.76;47.12;97066.66;5096413;28;20932;-90
2023/10/18 11:14:54;;;;;;;9.13;8.43;;;;;;;15.63;48.17;97067.06;5088124;28;20482;-89
2023/10/18 11:17:23;;;;;;;8.93;8.17;;;;;;;16.00;47.19;97084.34;5086568;28;20575;-89
2023/10/18 11:19:53;;;;;;;9.23;8.53;;;;;;;15.91;47.12;97090.56;5088821;28;20900;-89
2023/10/18 11:22:20;;;;;;;8.57;7.90;;;;;;;15.97;46.85;97082.13;5094143;28;20968;-89
2023/10/18 11:24:49;;;;;;;9.37;8.67;;;;;;;15.95;47.01;97075.28;5092318;28;20490;-89
2023/10/18 11:27:17;;;;;;;9.43;8.53;;;;;;;16.10;46.74;97067.22;5096105;28;20468;-90
2023/10/18 11:29:43;;;;;;;8.90;8.13;;;;;;;15.83;47.27;97058.28;5082338;28;20515;-89
2023/10/18 11:32:15;;;;;;;8.13;7.53;;;;;;;15.71;47.46;97061.16;5093365;28;20538;-89
2023/10/18 11:34:43;;;;;;;8.50;7.80;;;;;;;15.65;48.70;97048.56;5091117;28;21053;-89
2023/10/18 11:37:13;;;;;;;7.93;7.33;;;;;;;15.37;48.37;97044.97;5086337;28;20499;-89
2023/10/18 11:39:41;;;;;;;8.20;7.60;;;;;;;15.57;48.39;97041.69;5094661;28;20445;-89
2023/10/18 11:42:10;;;;;;;8.10;7.40;;;;;;;15.54;47.76;97036.72;5088898;28;20480;-89
2023/10/18 11:44:39;;;;;;;8.43;7.70;;;;;;;15.34;48.14;97034.59;5092202;28;21019;-89
2023/10/18 11:47:18;;;;;;;8.50;7.80;;;;;;;15.21;48.63;97026.84;5090371;28;20983;-89
2023/10/18 11:49:47;;;;;;;8.37;7.67;;;;;;;15.21;48.54;97009.66;5096468;28;20449;-89
2023/10/18 11:52:21;;;;;;;7.97;7.27;;;;;;;15.26;48.63;97007.81;5091728;28;20522;-89